Terminal Aerodrome Forecast
Issued by NWS

Home | Current Version | Previous Version | Text Only | Print | Product List | Glossary On
Versions: 1 2 3 4 5 6 7 8 9 10 11 12 13 14 15 16 17
000
FTUS41 KPHI 251737
TAFMIV
TAF
KMIV 251737Z 2518/2618 VRB04KT P6SM VCSH OVC012
     FM260100 30005KT P6SM VCSH OVC005
     FM260700 30008KT P6SM BKN250
     FM261400 30012KT P6SM SKC=

USA.gov is the U.S. government's official web portal to all federal, state and local government web resources and services.